createdAt,value
2019-03-29T00:01:12.383Z,16.30
2019-03-29T00:03:40.966Z,17.67
2019-03-29T00:06:10.775Z,16.63
2019-03-29T00:08:39.565Z,17.57
2019-03-29T00:11:08.147Z,16.77
2019-03-29T00:13:37.110Z,17.07
2019-03-29T00:16:05.715Z,17.63
2019-03-29T00:18:34.313Z,17.67
2019-03-29T00:21:02.968Z,17.03
2019-03-29T00:23:32.121Z,16.70
2019-03-29T00:26:00.654Z,17.83
2019-03-29T00:28:29.257Z,18.77
2019-03-29T00:30:57.880Z,17.60
2019-03-29T00:33:26.563Z,17.17
2019-03-29T00:35:55.327Z,18.77
2019-03-29T00:38:23.903Z,19.00
2019-03-29T00:40:52.465Z,19.87
2019-03-29T00:43:21.076Z,17.13
2019-03-29T00:45:49.657Z,19.20
2019-03-29T00:48:18.264Z,19.43
2019-03-29T00:50:46.873Z,17.47
2019-03-29T00:53:15.463Z,17.50
2019-03-29T00:55:44.350Z,17.30
2019-03-29T00:58:12.952Z,16.50
2019-03-29T01:00:41.595Z,17.07
2019-03-29T01:03:10.910Z,17.07
2019-03-29T01:05:39.920Z,17.90
2019-03-29T01:08:10.471Z,17.40
2019-03-29T01:10:38.968Z,18.23
2019-03-29T01:13:07.929Z,18.63
2019-03-29T01:15:36.488Z,17.60
2019-03-29T01:18:05.106Z,18.07
2019-03-29T01:20:33.806Z,19.63
2019-03-29T01:23:02.390Z,18.90
2019-03-29T01:25:31.008Z,18.30
2019-03-29T01:27:59.607Z,18.03
2019-03-29T01:30:28.194Z,20.10
2019-03-29T01:32:56.800Z,17.90
2019-03-29T01:35:25.386Z,19.90
2019-03-29T01:37:53.987Z,19.07
2019-03-29T01:40:22.651Z,18.70
2019-03-29T01:42:51.566Z,19.63
2019-03-29T01:45:20.238Z,19.87
2019-03-29T01:47:48.859Z,20.20
2019-03-29T01:50:17.811Z,21.03
2019-03-29T01:52:46.416Z,21.00
2019-03-29T01:55:15.087Z,20.63
2019-03-29T01:57:43.978Z,20.67
2019-03-29T02:00:15.650Z,21.27
2019-03-29T02:02:44.233Z,20.17
2019-03-29T02:05:12.826Z,20.80
2019-03-29T02:07:41.798Z,23.17
2019-03-29T02:10:10.833Z,22.10
2019-03-29T02:12:39.410Z,24.10
2019-03-29T02:15:08.748Z,22.13
2019-03-29T02:17:38.203Z,22.60
2019-03-29T02:20:07.652Z,25.13
2019-03-29T02:22:37.122Z,23.00
2019-03-29T02:25:07.848Z,22.73
2019-03-29T02:27:36.484Z,24.37
2019-03-29T02:30:09.184Z,24.60
2019-03-29T02:32:38.073Z,24.83
2019-03-29T02:35:07.219Z,25.27
2019-03-29T02:37:36.175Z,24.60
2019-03-29T02:40:06.708Z,25.10
2019-03-29T02:42:35.288Z,24.67
2019-03-29T02:45:05.163Z,25.93
2019-03-29T02:47:33.726Z,26.37
2019-03-29T02:50:02.591Z,25.27
2019-03-29T02:52:31.156Z,25.60
2019-03-29T02:54:59.775Z,24.93
2019-03-29T02:57:28.738Z,25.87
2019-03-29T02:59:57.330Z,27.60
2019-03-29T03:02:26.668Z,27.63
2019-03-29T03:04:55.772Z,27.77
2019-03-29T03:07:24.718Z,26.13
2019-03-29T03:09:53.371Z,26.67
2019-03-29T03:12:22.393Z,27.97
2019-03-29T03:14:51.083Z,27.43
2019-03-29T03:17:19.675Z,27.47
2019-03-29T03:19:48.279Z,27.87
2019-03-29T03:22:16.856Z,28.20
2019-03-29T03:24:45.827Z,26.07
2019-03-29T03:27:14.399Z,26.00
2019-03-29T03:29:43.007Z,27.40
2019-03-29T03:32:12.097Z,27.33
2019-03-29T03:34:41.111Z,26.50
2019-03-29T03:37:09.698Z,27.30
2019-03-29T03:39:38.289Z,28.37
2019-03-29T03:42:06.956Z,28.50
2019-03-29T03:44:35.569Z,29.17
2019-03-29T03:47:04.169Z,28.07
2019-03-29T03:49:32.792Z,29.43
2019-03-29T03:52:01.549Z,26.27
2019-03-29T03:54:30.240Z,26.00
2019-03-29T03:57:00.845Z,27.67
2019-03-29T03:59:30.217Z,27.90
2019-03-29T04:01:58.782Z,26.70
2019-03-29T04:04:27.351Z,25.17
2019-03-29T04:06:55.956Z,26.77
2019-03-29T04:09:24.540Z,26.67
2019-03-29T04:11:53.139Z,25.77
2019-03-29T04:14:22.342Z,26.97
2019-03-29T04:16:50.959Z,27.10
2019-03-29T04:19:20.010Z,26.67
2019-03-29T04:21:48.666Z,24.33
2019-03-29T04:24:17.345Z,27.63
2019-03-29T04:26:45.958Z,27.53
2019-03-29T04:29:14.566Z,25.87
2019-03-29T04:31:43.561Z,27.33
2019-03-29T04:34:12.140Z,27.80
2019-03-29T04:36:41.139Z,27.00
2019-03-29T04:39:09.725Z,25.80
2019-03-29T04:41:38.327Z,27.60
2019-03-29T04:44:06.972Z,27.60
2019-03-29T04:46:35.607Z,28.67
2019-03-29T04:49:04.178Z,28.43
2019-03-29T04:51:32.796Z,27.70
2019-03-29T04:54:01.376Z,28.23
2019-03-29T04:56:29.998Z,30.27
2019-03-29T04:58:58.577Z,28.93
2019-03-29T05:01:27.219Z,28.73
2019-03-29T05:03:55.807Z,30.07
2019-03-29T05:06:24.474Z,26.70
2019-03-29T05:08:53.529Z,28.43
2019-03-29T05:11:22.126Z,29.07
2019-03-29T05:13:50.727Z,28.47
2019-03-29T05:16:19.347Z,28.07
2019-03-29T05:18:48.774Z,28.23
2019-03-29T05:21:17.367Z,28.57
2019-03-29T05:23:46.136Z,26.70
2019-03-29T05:26:14.735Z,29.33
2019-03-29T05:28:43.314Z,29.33
2019-03-29T05:31:11.948Z,29.53
2019-03-29T05:33:40.523Z,28.23
2019-03-29T05:36:09.195Z,27.63
2019-03-29T05:38:38.505Z,27.87
2019-03-29T05:41:07.098Z,30.47
2019-03-29T05:43:35.728Z,27.57
2019-03-29T05:46:04.364Z,27.27
2019-03-29T05:48:32.935Z,28.17
2019-03-29T05:51:01.545Z,28.40
2019-03-29T05:53:30.122Z,29.10
2019-03-29T05:55:58.710Z,28.93
2019-03-29T05:58:27.278Z,29.10
2019-03-29T06:00:55.892Z,29.13
2019-03-29T06:03:24.606Z,29.57
2019-03-29T06:05:53.199Z,30.00
2019-03-29T06:08:21.781Z,28.07
2019-03-29T06:10:50.373Z,31.77
2019-03-29T06:13:18.942Z,30.90
2019-03-29T06:15:47.506Z,28.63
2019-03-29T06:18:16.194Z,29.93
2019-03-29T06:20:44.894Z,29.77
2019-03-29T06:23:13.493Z,28.70
2019-03-29T06:25:42.090Z,28.90
2019-03-29T06:28:10.693Z,29.80
2019-03-29T06:30:39.263Z,30.73
2019-03-29T06:33:08.001Z,28.57
2019-03-29T06:35:39.066Z,28.13
2019-03-29T06:38:09.831Z,28.63
2019-03-29T06:40:38.397Z,28.30
2019-03-29T06:43:07.065Z,29.63
2019-03-29T06:45:47.216Z,28.57
2019-03-29T06:48:05.896Z,29.43
2019-03-29T06:50:34.493Z,28.23
2019-03-29T06:53:03.104Z,28.43
2019-03-29T06:55:31.682Z,27.67
2019-03-29T06:58:00.277Z,28.07
2019-03-29T07:00:28.917Z,25.20
2019-03-29T07:02:57.520Z,26.53
2019-03-29T07:05:26.098Z,27.90
2019-03-29T07:07:54.712Z,26.27
2019-03-29T07:10:23.279Z,26.27
2019-03-29T07:12:52.242Z,26.63
2019-03-29T07:15:20.816Z,28.17
2019-03-29T07:17:49.728Z,25.53
2019-03-29T07:20:18.616Z,25.23
2019-03-29T07:22:47.215Z,26.07
2019-03-29T07:25:15.803Z,24.90
2019-03-29T07:27:51.912Z,26.33
2019-03-29T07:30:15.045Z,24.63
2019-03-29T07:32:43.644Z,24.23
2019-03-29T07:35:12.345Z,26.03
2019-03-29T07:37:40.950Z,25.33
2019-03-29T07:40:09.865Z,24.40
2019-03-29T07:42:38.454Z,25.27
2019-03-29T07:45:10.374Z,24.07
2019-03-29T07:47:38.868Z,23.13
2019-03-29T07:50:08.926Z,22.97
2019-03-29T07:52:37.509Z,22.80
2019-03-29T07:55:07.641Z,23.33
2019-03-29T07:57:36.260Z,23.20
2019-03-29T08:00:07.557Z,22.40
2019-03-29T08:02:36.233Z,23.47
2019-03-29T08:05:06.249Z,20.97
2019-03-29T08:07:34.862Z,22.27
2019-03-29T08:10:04.592Z,22.90
2019-03-29T08:12:33.295Z,21.83
2019-03-29T08:15:01.963Z,19.37
2019-03-29T08:17:30.631Z,19.10
2019-03-29T08:20:35.869Z,20.10
2019-03-29T08:22:29.803Z,21.50
2019-03-29T08:24:59.365Z,20.50
2019-03-29T08:27:28.107Z,20.67
2019-03-29T08:29:56.682Z,20.13
2019-03-29T08:32:25.289Z,20.80
2019-03-29T08:34:53.881Z,20.40
2019-03-29T08:37:22.479Z,20.00
2019-03-29T08:39:51.062Z,19.60
2019-03-29T08:42:19.665Z,18.80
2019-03-29T08:44:48.237Z,19.00
2019-03-29T08:47:16.840Z,21.63
2019-03-29T08:49:45.426Z,19.47
2019-03-29T08:52:14.007Z,19.83
2019-03-29T08:54:42.602Z,17.13
2019-03-29T08:57:11.191Z,17.70
2019-03-29T08:59:39.787Z,17.40
2019-03-29T09:02:08.536Z,17.13
2019-03-29T09:04:37.194Z,16.77
2019-03-29T09:07:05.717Z,17.03
2019-03-29T09:09:34.318Z,17.43
2019-03-29T09:12:13.904Z,17.13
2019-03-29T09:14:33.566Z,16.33
2019-03-29T09:17:02.143Z,17.10
2019-03-29T09:19:30.762Z,15.37
2019-03-29T09:21:59.691Z,15.13
2019-03-29T09:24:28.334Z,17.10
2019-03-29T09:26:56.919Z,20.87
2019-03-29T09:29:25.505Z,14.33
2019-03-29T09:31:54.068Z,13.03
2019-03-29T09:34:22.669Z,13.43
2019-03-29T09:36:51.251Z,13.47
2019-03-29T09:39:19.847Z,14.03
2019-03-29T09:41:48.498Z,12.57
2019-03-29T09:44:17.133Z,13.03
2019-03-29T09:46:45.727Z,11.77
2019-03-29T09:49:14.327Z,12.23
2019-03-29T09:51:42.927Z,10.77
2019-03-29T09:54:11.531Z,11.27
2019-03-29T09:56:40.109Z,11.37
2019-03-29T09:59:08.726Z,9.87
2019-03-29T10:01:37.410Z,10.70
2019-03-29T10:04:06.010Z,9.67
2019-03-29T10:06:34.636Z,9.60
2019-03-29T10:09:03.445Z,8.93
2019-03-29T10:11:32.020Z,8.90
2019-03-29T10:14:01.016Z,8.37
2019-03-29T10:16:29.596Z,9.17
2019-03-29T10:18:58.555Z,8.67
2019-03-29T10:21:27.138Z,9.77
2019-03-29T10:23:55.723Z,9.27
2019-03-29T10:26:24.358Z,9.33
2019-03-29T10:28:53.102Z,7.20
2019-03-29T10:31:32.129Z,6.10
2019-03-29T10:33:52.248Z,5.87
2019-03-29T10:36:20.819Z,5.87
2019-03-29T10:38:49.427Z,5.77
2019-03-29T10:41:18.297Z,6.63
2019-03-29T10:43:47.200Z,6.53
2019-03-29T10:46:15.748Z,3.97
2019-03-29T10:48:44.354Z,2.40
2019-03-29T10:51:12.927Z,0.97
2019-03-29T10:53:41.508Z,2.03
2019-03-29T10:56:10.105Z,1.67
2019-03-29T10:58:38.979Z,2.23
2019-03-29T11:01:07.766Z,2.70
2019-03-29T11:03:36.326Z,3.03
2019-03-29T11:06:04.928Z,3.60
2019-03-29T11:08:33.590Z,3.60
2019-03-29T11:11:02.181Z,2.50
2019-03-29T11:13:30.754Z,2.73
2019-03-29T11:15:59.353Z,2.90
2019-03-29T11:18:27.924Z,2.57
2019-03-29T11:20:56.499Z,2.60
2019-03-29T11:23:25.103Z,3.13
2019-03-29T11:25:53.684Z,3.20
2019-03-29T11:28:22.277Z,3.20
2019-03-29T11:30:50.868Z,3.00
2019-03-29T11:33:19.450Z,3.03
2019-03-29T11:35:48.097Z,2.77
2019-03-29T11:38:16.661Z,2.73
2019-03-29T11:40:45.267Z,2.20
2019-03-29T11:43:26.054Z,2.60
2019-03-29T11:45:44.405Z,2.73
2019-03-29T11:48:13.061Z,3.27
2019-03-29T11:50:41.679Z,2.27
2019-03-29T11:53:10.242Z,3.10
2019-03-29T11:55:39.158Z,2.53
2019-03-29T11:58:07.745Z,2.90
2019-03-29T12:00:37.523Z,2.10
2019-03-29T12:03:09.034Z,2.67
2019-03-29T12:05:36.702Z,2.53
2019-03-29T12:08:05.833Z,2.80
2019-03-29T12:10:34.967Z,2.70
2019-03-29T12:13:05.542Z,1.73
2019-03-29T12:15:34.176Z,2.00
2019-03-29T12:18:02.743Z,2.37
2019-03-29T12:20:31.344Z,2.70
2019-03-29T12:22:59.915Z,2.50
2019-03-29T12:25:28.594Z,2.63
2019-03-29T12:27:57.579Z,2.13
2019-03-29T12:30:31.715Z,2.60
2019-03-29T12:32:56.410Z,2.17
2019-03-29T12:35:25.061Z,2.93
2019-03-29T12:37:53.619Z,2.50
2019-03-29T12:40:22.215Z,2.17
2019-03-29T12:42:51.185Z,2.33
2019-03-29T12:45:19.782Z,1.93
2019-03-29T12:47:48.350Z,2.80
2019-03-29T12:50:17.306Z,2.47
2019-03-29T12:52:45.914Z,3.00
2019-03-29T12:55:15.038Z,2.63
2019-03-29T12:57:43.643Z,2.57
2019-03-29T13:00:12.711Z,2.67
2019-03-29T13:02:41.340Z,3.30
2019-03-29T13:05:10.375Z,2.43
2019-03-29T13:07:38.987Z,2.50
2019-03-29T13:10:10.998Z,2.47
2019-03-29T13:12:39.631Z,3.17
2019-03-29T13:15:08.585Z,3.00
2019-03-29T13:17:37.751Z,3.07
2019-03-29T13:20:06.885Z,3.20
2019-03-29T13:22:35.503Z,3.27
2019-03-29T13:25:07.413Z,4.20
2019-03-29T13:27:35.167Z,3.70
2019-03-29T13:30:05.744Z,3.93
2019-03-29T13:32:34.360Z,4.97
2019-03-29T13:35:03.521Z,5.50
2019-03-29T13:37:32.708Z,4.93
2019-03-29T13:40:01.828Z,5.13
2019-03-29T13:42:30.423Z,4.80
2019-03-29T13:44:59.020Z,5.20
2019-03-29T13:47:27.626Z,4.37
2019-03-29T13:49:56.224Z,4.70
2019-03-29T13:52:24.808Z,5.00
2019-03-29T13:54:53.843Z,4.60
2019-03-29T13:57:22.593Z,4.80
2019-03-29T13:59:51.242Z,4.47
2019-03-29T14:02:19.875Z,4.23
2019-03-29T14:04:48.450Z,4.67
2019-03-29T14:07:17.407Z,4.40
2019-03-29T14:09:45.991Z,4.90
2019-03-29T14:12:14.682Z,4.37
2019-03-29T14:14:43.267Z,4.20
2019-03-29T14:17:11.883Z,4.07
2019-03-29T14:19:40.814Z,4.00
2019-03-29T14:22:09.807Z,4.23
2019-03-29T14:24:38.459Z,4.37
2019-03-29T14:27:07.079Z,4.10
2019-03-29T14:29:37.182Z,4.80
2019-03-29T14:32:05.782Z,5.00
2019-03-29T14:34:34.427Z,4.50
2019-03-29T14:37:03.714Z,5.17
2019-03-29T14:39:32.705Z,3.90
2019-03-29T14:42:01.390Z,5.20
2019-03-29T14:44:29.931Z,5.10
2019-03-29T14:46:58.541Z,5.43
2019-03-29T14:49:27.228Z,4.60
2019-03-29T14:51:55.807Z,5.97
2019-03-29T14:54:24.799Z,5.83
2019-03-29T14:56:54.174Z,5.50
2019-03-29T14:59:24.135Z,5.07
2019-03-29T15:01:53.083Z,6.00
2019-03-29T15:04:21.751Z,5.63
2019-03-29T15:06:50.606Z,5.50
2019-03-29T15:09:20.690Z,5.47
2019-03-29T15:11:49.624Z,4.77
2019-03-29T15:14:18.881Z,5.67
2019-03-29T15:16:47.773Z,5.23
2019-03-29T15:19:16.446Z,5.93
2019-03-29T15:21:45.222Z,4.87
2019-03-29T15:24:13.859Z,9.50
2019-03-29T15:26:42.441Z,4.93
2019-03-29T15:29:12.592Z,4.60
2019-03-29T15:31:41.554Z,5.17
2019-03-29T15:34:10.178Z,4.60
2019-03-29T15:36:39.139Z,4.83
2019-03-29T15:39:07.846Z,4.80
2019-03-29T15:41:36.451Z,4.93
2019-03-29T15:44:05.187Z,5.07
2019-03-29T15:46:34.006Z,5.83
2019-03-29T15:49:02.611Z,5.50
2019-03-29T15:51:31.223Z,5.50
2019-03-29T15:54:00.215Z,4.50
2019-03-29T15:56:28.858Z,4.37
2019-03-29T15:58:58.954Z,5.37
2019-03-29T16:01:27.706Z,4.90
2019-03-29T16:03:56.421Z,4.23
2019-03-29T16:06:25.018Z,3.90
2019-03-29T16:08:53.654Z,3.97
2019-03-29T16:11:22.665Z,3.93
2019-03-29T16:13:51.433Z,4.20
2019-03-29T16:16:20.554Z,3.83
2019-03-29T16:18:53.912Z,3.93
2019-03-29T16:21:22.631Z,3.80
2019-03-29T16:23:51.307Z,4.47
2019-03-29T16:26:19.885Z,3.90
2019-03-29T16:28:48.504Z,4.60
2019-03-29T16:31:18.927Z,4.00
2019-03-29T16:33:47.524Z,4.00
2019-03-29T16:36:17.647Z,3.67
2019-03-29T16:38:46.214Z,4.50
2019-03-29T16:41:15.090Z,3.53
2019-03-29T16:43:44.989Z,4.17
2019-03-29T16:46:13.572Z,4.27
2019-03-29T16:48:42.219Z,3.97
2019-03-29T16:51:11.223Z,7.93
2019-03-29T16:53:39.945Z,7.27
2019-03-29T16:56:11.924Z,4.47
2019-03-29T16:58:39.648Z,4.60
2019-03-29T17:01:09.256Z,4.90
2019-03-29T17:03:38.386Z,5.07
2019-03-29T17:06:07.177Z,4.83
2019-03-29T17:08:36.362Z,4.43
2019-03-29T17:11:06.697Z,4.33
2019-03-29T17:13:38.686Z,5.30
2019-03-29T17:16:12.977Z,5.30
2019-03-29T17:18:41.796Z,5.13
2019-03-29T17:21:10.532Z,5.17
2019-03-29T17:23:39.666Z,4.47
2019-03-29T17:26:08.295Z,5.40
2019-03-29T17:28:36.868Z,5.00
2019-03-29T17:31:07.131Z,5.40
2019-03-29T17:33:35.715Z,4.90
2019-03-29T17:36:04.305Z,4.67
2019-03-29T17:38:35.585Z,5.87
2019-03-29T17:41:04.201Z,5.90
2019-03-29T17:43:33.279Z,9.07
2019-03-29T17:46:15.178Z,6.90
2019-03-29T17:48:32.467Z,5.20
2019-03-29T17:51:01.055Z,6.07
2019-03-29T17:53:29.671Z,5.43
2019-03-29T17:56:00.891Z,5.70
2019-03-29T17:58:29.667Z,5.57
2019-03-29T18:00:58.584Z,5.40
2019-03-29T18:03:27.299Z,5.87
2019-03-29T18:05:55.947Z,5.67
2019-03-29T18:08:24.627Z,5.10
2019-03-29T18:10:53.207Z,6.37
2019-03-29T18:13:21.816Z,6.27
2019-03-29T18:15:50.394Z,5.67
2019-03-29T18:18:19.362Z,5.17
2019-03-29T18:20:48.255Z,5.30
2019-03-29T18:23:16.864Z,5.47
2019-03-29T18:25:45.439Z,5.63
2019-03-29T18:28:14.051Z,5.30
2019-03-29T18:30:43.047Z,5.90
2019-03-29T18:33:11.715Z,6.07
2019-03-29T18:35:40.297Z,5.67
2019-03-29T18:38:08.917Z,6.57
2019-03-29T18:40:37.857Z,7.10
2019-03-29T18:43:06.552Z,7.30
2019-03-29T18:45:35.125Z,6.53
2019-03-29T18:48:04.003Z,6.23
2019-03-29T18:50:32.586Z,5.80
2019-03-29T18:53:01.194Z,6.40
2019-03-29T18:55:29.770Z,6.67
2019-03-29T18:57:58.367Z,5.83
2019-03-29T19:00:32.361Z,6.80
2019-03-29T19:03:01.053Z,6.30
2019-03-29T19:05:30.287Z,7.10
2019-03-29T19:07:58.959Z,6.93
2019-03-29T19:10:27.939Z,6.83
2019-03-29T19:12:56.961Z,6.40
2019-03-29T19:15:25.619Z,6.90
2019-03-29T19:17:54.368Z,6.87
2019-03-29T19:20:27.918Z,7.13
2019-03-29T19:22:53.271Z,7.03
2019-03-29T19:25:21.836Z,7.30
2019-03-29T19:27:50.478Z,9.63
2019-03-29T19:30:19.770Z,7.70
2019-03-29T19:32:48.414Z,7.33
2019-03-29T19:35:17.363Z,7.37
2019-03-29T19:37:45.956Z,7.90
2019-03-29T19:40:14.818Z,7.17
2019-03-29T19:42:43.381Z,7.40
2019-03-29T19:45:12.521Z,7.73
2019-03-29T19:47:41.124Z,8.77
2019-03-29T19:50:10.162Z,12.53
2019-03-29T19:52:38.788Z,12.00
2019-03-29T19:55:07.528Z,7.73
2019-03-29T19:57:36.693Z,7.53
2019-03-29T20:00:11.089Z,8.07
2019-03-29T20:02:39.779Z,7.90
2019-03-29T20:05:23.249Z,7.87
2019-03-29T20:07:52.440Z,7.43
2019-03-29T20:10:28.833Z,7.77
2019-03-29T20:13:01.270Z,8.37
2019-03-29T20:15:35.666Z,7.87
2019-03-29T20:18:07.607Z,7.80
2019-03-29T20:20:36.555Z,7.93
2019-03-29T20:23:07.930Z,8.63
2019-03-29T20:25:36.792Z,7.90
2019-03-29T20:28:05.760Z,7.07
2019-03-29T20:30:34.546Z,7.80
2019-03-29T20:33:07.193Z,7.17
2019-03-29T20:35:35.732Z,6.83
2019-03-29T20:38:04.380Z,7.07
2019-03-29T20:40:33.001Z,7.70
2019-03-29T20:43:01.638Z,6.43
2019-03-29T20:45:30.249Z,6.47
2019-03-29T20:47:59.095Z,6.00
2019-03-29T20:50:27.707Z,6.53
2019-03-29T20:52:56.353Z,6.37
2019-03-29T20:55:24.965Z,6.43
2019-03-29T20:57:58.018Z,5.73
2019-03-29T21:00:26.712Z,5.67
2019-03-29T21:02:58.376Z,6.27
2019-03-29T21:05:28.174Z,6.17
2019-03-29T21:07:56.898Z,6.80
2019-03-29T21:10:25.487Z,6.60
2019-03-29T21:12:55.401Z,6.90
2019-03-29T21:15:26.989Z,6.23
2019-03-29T21:17:57.901Z,5.27
2019-03-29T21:20:26.316Z,6.30
2019-03-29T21:22:55.000Z,5.67
2019-03-29T21:25:25.382Z,5.53
2019-03-29T21:27:55.475Z,5.60
2019-03-29T21:30:29.293Z,5.40
2019-03-29T21:33:00.116Z,5.83
2019-03-29T21:35:30.871Z,5.27
2019-03-29T21:37:59.437Z,8.70
2019-03-29T21:40:28.479Z,10.83
2019-03-29T21:42:57.852Z,7.30
2019-03-29T21:45:37.732Z,5.10
2019-03-29T21:48:27.444Z,5.17
2019-03-29T21:50:38.071Z,4.77
2019-03-29T21:53:08.321Z,6.47
2019-03-29T21:55:37.585Z,7.40
2019-03-29T21:58:06.207Z,7.60
2019-03-29T22:00:38.556Z,7.33
2019-03-29T22:03:09.065Z,5.60
2019-03-29T22:05:38.144Z,5.07
2019-03-29T22:08:06.808Z,4.87
2019-03-29T22:10:35.411Z,4.53
2019-03-29T22:13:04.380Z,4.63
2019-03-29T22:15:33.013Z,4.60
2019-03-29T22:18:01.611Z,4.30
2019-03-29T22:20:30.288Z,4.63
2019-03-29T22:22:58.867Z,4.80
2019-03-29T22:25:27.481Z,4.20
2019-03-29T22:27:56.396Z,4.30
2019-03-29T22:30:25.039Z,4.23
2019-03-29T22:32:53.646Z,4.50
2019-03-29T22:35:22.225Z,4.40
2019-03-29T22:37:50.814Z,4.83
2019-03-29T22:40:19.809Z,5.23
2019-03-29T22:42:51.499Z,5.00
2019-03-29T22:45:20.516Z,4.17
2019-03-29T22:47:49.616Z,4.63
2019-03-29T22:50:18.393Z,3.97
2019-03-29T22:52:47.213Z,3.97
2019-03-29T22:55:15.999Z,4.00
2019-03-29T22:57:44.632Z,4.37
2019-03-29T23:00:27.118Z,3.63
2019-03-29T23:02:55.718Z,3.87
2019-03-29T23:05:25.839Z,3.73
2019-03-29T23:07:54.529Z,3.73
2019-03-29T23:10:23.177Z,5.03
2019-03-29T23:12:52.900Z,5.03
2019-03-29T23:15:21.518Z,4.37
2019-03-29T23:17:50.191Z,4.37
2019-03-29T23:20:18.813Z,4.40
2019-03-29T23:22:47.432Z,4.57
2019-03-29T23:25:15.992Z,4.20
2019-03-29T23:27:44.604Z,3.93
2019-03-29T23:30:14.877Z,4.00
2019-03-29T23:32:43.545Z,3.90
2019-03-29T23:35:12.250Z,4.10
2019-03-29T23:37:40.877Z,4.30
2019-03-29T23:40:10.023Z,3.93
2019-03-29T23:42:40.226Z,3.97
2019-03-29T23:45:08.973Z,3.77
2019-03-29T23:47:37.516Z,3.53
2019-03-29T23:50:06.508Z,4.20
2019-03-29T23:52:35.122Z,3.87
2019-03-29T23:55:04.764Z,3.60
2019-03-29T23:57:33.374Z,3.43
